createdAt,value
2022-07-26T00:00:17.795Z,4.90
2022-07-26T00:02:47.460Z,5.22
2022-07-26T00:05:16.724Z,5.28
2022-07-26T00:07:44.450Z,4.68
2022-07-26T00:10:11.768Z,4.97
2022-07-26T00:12:39.392Z,5.05
2022-07-26T00:15:08.108Z,5.70
2022-07-26T00:17:35.347Z,5.50
2022-07-26T00:20:02.742Z,6.20
2022-07-26T00:22:35.827Z,5.45
2022-07-26T00:25:03.964Z,6.18
2022-07-26T00:27:31.268Z,5.55
2022-07-26T00:29:58.597Z,6.05
2022-07-26T00:32:25.906Z,6.00
2022-07-26T00:34:53.187Z,6.68
2022-07-26T00:37:21.157Z,6.10
2022-07-26T00:39:49.043Z,6.60
2022-07-26T00:42:16.491Z,6.40
2022-07-26T00:44:45.172Z,6.18
2022-07-26T00:47:15.488Z,6.00
2022-07-26T00:49:43.206Z,6.03
2022-07-26T00:52:10.654Z,5.93
2022-07-26T00:54:38.672Z,6.03
2022-07-26T00:57:06.055Z,5.70
2022-07-26T00:59:33.458Z,5.72
2022-07-26T01:02:01.356Z,5.75
2022-07-26T01:04:28.732Z,6.70
2022-07-26T01:06:55.972Z,5.75
2022-07-26T01:09:23.354Z,5.63
2022-07-26T01:11:50.864Z,5.85
2022-07-26T01:14:22.357Z,5.68
2022-07-26T01:16:49.845Z,5.63
2022-07-26T01:19:17.178Z,5.70
2022-07-26T01:21:44.714Z,5.43
2022-07-26T01:24:12.030Z,5.35
2022-07-26T01:26:39.268Z,5.47
2022-07-26T01:29:06.575Z,5.65
2022-07-26T01:31:34.076Z,5.00
2022-07-26T06:48:27.540Z,5.05
2022-07-26T06:55:16.161Z,4.47
2022-07-26T07:02:02.262Z,4.82
2022-07-26T07:09:46.509Z,5.10
2022-07-26T07:12:15.181Z,5.10
2022-07-26T07:14:42.643Z,5.20
2022-07-26T07:17:12.137Z,4.97
2022-07-26T07:19:41.354Z,4.28
2022-07-26T07:22:12.015Z,4.18
2022-07-26T07:29:05.522Z,3.80
2022-07-26T07:31:47.860Z,4.18
2022-07-26T07:34:19.600Z,3.33
2022-07-26T07:45:19.459Z,3.80
2022-07-26T07:52:14.812Z,4.00
2022-07-26T07:59:11.297Z,4.05
2022-07-26T08:02:04.632Z,4.38
2022-07-26T08:04:33.615Z,3.53
2022-07-26T08:07:01.490Z,3.88
2022-07-26T08:12:19.986Z,3.65
2022-07-26T08:14:47.511Z,3.55
2022-07-26T08:17:15.034Z,3.80
2022-07-26T08:19:42.615Z,3.72
2022-07-26T08:22:11.209Z,3.95
2022-07-26T08:25:29.533Z,3.80
2022-07-26T08:28:04.432Z,3.70
2022-07-26T08:31:02.746Z,3.85
2022-07-26T08:33:30.227Z,3.65
2022-07-26T08:36:03.115Z,3.80
2022-07-26T08:38:31.155Z,3.75
2022-07-26T08:41:02.446Z,3.50
2022-07-26T08:43:30.485Z,3.90
2022-07-26T08:46:02.812Z,3.80
2022-07-26T08:48:33.865Z,3.88
2022-07-26T08:51:11.323Z,4.03
2022-07-26T08:53:43.363Z,3.78
2022-07-26T08:56:10.845Z,3.45
2022-07-26T08:58:43.954Z,3.17
2022-07-26T09:01:14.878Z,3.88
2022-07-26T09:03:43.796Z,3.50
2022-07-26T09:10:44.690Z,3.38
2022-07-26T09:13:12.807Z,3.50
2022-07-26T09:15:44.020Z,3.63
2022-07-26T09:18:28.277Z,3.47
2022-07-26T09:20:57.436Z,3.75
2022-07-26T09:23:24.694Z,3.65
2022-07-26T09:25:52.269Z,3.60
2022-07-26T09:28:24.646Z,3.67
2022-07-26T09:30:59.958Z,3.65
2022-07-26T09:33:27.374Z,3.88
2022-07-26T09:39:58.086Z,3.63
2022-07-26T09:42:29.024Z,3.78
2022-07-26T09:45:24.325Z,3.60
2022-07-26T09:48:07.694Z,3.65
2022-07-26T09:50:35.119Z,3.40
2022-07-26T09:53:09.188Z,4.00
2022-07-26T09:56:01.872Z,3.60
2022-07-26T10:02:55.991Z,3.45
2022-07-26T10:05:23.317Z,3.70
2022-07-26T10:08:44.123Z,3.50
2022-07-26T10:11:11.647Z,3.50
2022-07-26T10:13:39.622Z,3.10
2022-07-26T10:16:07.904Z,2.53
2022-07-26T10:18:39.267Z,3.10
2022-07-26T10:21:27.982Z,3.42
2022-07-26T10:23:59.027Z,3.22
2022-07-26T10:26:55.182Z,2.70
2022-07-26T10:29:26.176Z,2.80
2022-07-26T10:32:02.768Z,2.75
2022-07-26T10:38:33.318Z,2.83
2022-07-26T10:41:32.471Z,3.17
2022-07-26T10:44:14.217Z,3.08
2022-07-26T10:46:59.778Z,2.88
2022-07-26T10:54:01.130Z,2.80
2022-07-26T10:56:33.154Z,2.72
2022-07-26T10:59:02.973Z,2.90
2022-07-26T11:01:37.758Z,2.75
2022-07-26T11:04:07.092Z,2.85
2022-07-26T11:06:34.567Z,2.22
2022-07-26T11:09:10.068Z,2.20
2022-07-26T11:11:37.327Z,2.50
2022-07-26T11:14:26.646Z,2.60
2022-07-26T11:16:55.094Z,2.42
2022-07-26T11:19:24.766Z,2.78
2022-07-26T11:21:57.081Z,2.50
2022-07-26T11:24:24.545Z,2.40
2022-07-26T11:26:52.330Z,2.40
2022-07-26T11:32:18.577Z,2.45
2022-07-26T11:34:46.798Z,2.47
2022-07-26T11:37:14.339Z,2.50
2022-07-26T11:43:59.042Z,2.40
2022-07-26T11:46:54.455Z,2.45
2022-07-26T11:53:38.351Z,2.42
2022-07-26T12:01:22.410Z,2.70
2022-07-26T12:08:03.061Z,2.65
2022-07-26T12:11:17.755Z,2.30
2022-07-26T12:22:39.291Z,2.40
2022-07-26T12:33:59.807Z,2.65
2022-07-26T12:36:29.447Z,3.17
2022-07-26T12:39:02.550Z,6.97
2022-07-26T12:41:37.456Z,5.57
2022-07-26T12:44:30.272Z,2.63
2022-07-26T13:00:29.661Z,2.60
2022-07-26T13:04:07.071Z,2.47
2022-07-26T13:13:39.302Z,2.30
2022-07-26T13:20:31.487Z,2.50
2022-07-26T13:31:27.591Z,2.67
2022-07-26T13:38:14.106Z,2.22
2022-07-26T13:49:33.242Z,2.75
2022-07-26T13:56:13.180Z,2.20
2022-07-26T14:14:25.168Z,2.40
2022-07-26T14:21:11.917Z,2.50
2022-07-26T14:24:00.742Z,2.78
2022-07-26T14:30:54.092Z,2.55
2022-07-26T14:37:44.546Z,2.55
2022-07-26T14:45:36.523Z,2.58
2022-07-26T14:48:04.012Z,2.58
2022-07-26T14:54:50.405Z,2.70
2022-07-26T15:01:18.619Z,2.60
2022-07-26T15:03:46.084Z,2.70
2022-07-26T15:10:38.064Z,2.53
2022-07-26T15:13:31.447Z,2.63
2022-07-26T15:15:58.705Z,2.50
2022-07-26T15:18:34.315Z,2.80
2022-07-26T15:21:02.517Z,2.50
2022-07-26T15:24:39.419Z,2.60
2022-07-26T15:27:07.630Z,2.80
2022-07-26T15:34:02.482Z,2.90
2022-07-26T15:36:45.069Z,2.60
2022-07-26T15:39:17.280Z,2.47
2022-07-26T15:41:48.886Z,2.83
2022-07-26T15:44:17.528Z,2.60
2022-07-26T15:46:47.921Z,3.03
2022-07-26T15:49:16.190Z,2.30
2022-07-26T15:52:11.766Z,2.83
2022-07-26T15:54:41.136Z,2.67
2022-07-26T15:57:09.348Z,2.60
2022-07-26T16:03:49.899Z,2.63
2022-07-26T16:07:08.541Z,2.70
2022-07-26T16:09:35.971Z,2.67
2022-07-26T16:16:22.242Z,3.30
2022-07-26T16:18:49.621Z,3.30
2022-07-26T16:25:43.401Z,2.80
2022-07-26T16:28:10.747Z,2.65
2022-07-26T16:35:10.510Z,2.95
2022-07-26T16:42:06.755Z,3.35
2022-07-26T16:44:48.526Z,3.05
2022-07-26T16:47:15.862Z,3.10
2022-07-26T16:50:46.225Z,3.30
2022-07-26T16:53:13.536Z,3.03
2022-07-26T16:59:41.212Z,3.25
2022-07-26T17:02:16.849Z,3.20
2022-07-26T17:04:44.242Z,3.38
2022-07-26T17:11:30.420Z,2.80
2022-07-26T17:14:27.662Z,2.72
2022-07-26T17:16:57.987Z,2.90
2022-07-26T17:19:29.956Z,2.75
2022-07-26T17:21:57.638Z,2.80
2022-07-26T17:24:25.418Z,2.65
2022-07-26T17:26:52.836Z,2.90
2022-07-26T17:29:20.356Z,2.65
2022-07-26T17:31:47.683Z,2.60
2022-07-26T17:34:15.014Z,2.70
2022-07-26T17:36:43.027Z,3.55
2022-07-26T17:39:14.861Z,2.80
2022-07-26T17:41:49.151Z,2.70
2022-07-26T17:44:16.690Z,2.80
2022-07-26T17:46:44.338Z,2.70
2022-07-26T17:49:16.096Z,3.42
2022-07-26T17:51:43.641Z,2.80
2022-07-26T17:54:11.131Z,2.80
2022-07-26T17:56:38.890Z,2.70
2022-07-26T17:59:06.125Z,2.60
2022-07-26T18:01:33.495Z,2.95
2022-07-26T18:04:00.875Z,2.97
2022-07-26T18:06:28.256Z,2.55
2022-07-26T18:13:23.178Z,2.53
2022-07-26T18:16:05.509Z,2.90
2022-07-26T18:18:33.385Z,2.80
2022-07-26T18:21:00.801Z,2.63
2022-07-26T18:27:29.398Z,2.70
2022-07-26T18:33:52.246Z,2.80
2022-07-26T18:36:20.415Z,2.72
2022-07-26T18:38:53.565Z,2.80
2022-07-26T18:41:21.575Z,2.92
2022-07-26T18:43:49.455Z,2.90
2022-07-26T18:47:33.942Z,2.80
2022-07-26T18:50:02.597Z,2.70
2022-07-26T18:52:39.239Z,2.70
2022-07-26T18:59:32.333Z,2.67
2022-07-26T19:02:03.281Z,2.72
2022-07-26T19:04:30.848Z,2.90
2022-07-26T19:06:58.346Z,2.60
2022-07-26T19:13:51.139Z,2.90
2022-07-26T19:16:53.718Z,3.13
2022-07-26T19:19:21.066Z,2.83
2022-07-26T19:21:49.319Z,2.80
2022-07-26T19:25:09.042Z,2.80
2022-07-26T19:27:36.996Z,2.85
2022-07-26T19:30:06.055Z,3.00
2022-07-26T19:32:33.799Z,2.92
2022-07-26T19:35:01.329Z,3.03
2022-07-26T19:37:29.811Z,2.97
2022-07-26T19:40:00.408Z,2.97
2022-07-26T19:42:29.989Z,3.08
2022-07-26T19:44:57.474Z,3.13
2022-07-26T19:47:24.969Z,2.92
2022-07-26T19:49:52.320Z,3.08
2022-07-26T19:52:19.633Z,2.97
2022-07-26T19:54:46.988Z,3.30
2022-07-26T19:57:14.589Z,3.05
2022-07-26T19:59:41.963Z,3.00
2022-07-26T20:02:09.440Z,3.30
2022-07-26T20:04:36.814Z,3.15
2022-07-26T20:07:04.780Z,2.92
2022-07-26T20:09:32.161Z,3.42
2022-07-26T20:11:59.940Z,3.00
2022-07-26T20:14:27.470Z,2.97
2022-07-26T20:16:56.917Z,3.30
2022-07-26T20:19:25.168Z,3.50
2022-07-26T20:21:52.659Z,3.20
2022-07-26T20:24:20.252Z,3.60
2022-07-26T20:26:47.905Z,3.47
2022-07-26T20:29:15.596Z,3.40
2022-07-26T20:31:43.247Z,3.58
2022-07-26T20:34:10.770Z,3.20
2022-07-26T20:36:38.402Z,3.70
2022-07-26T20:39:05.976Z,3.67
2022-07-26T20:41:33.877Z,3.47
2022-07-26T20:44:01.620Z,3.58
2022-07-26T20:46:28.992Z,3.30
2022-07-26T20:48:56.491Z,3.42
2022-07-26T20:51:23.867Z,3.83
2022-07-26T20:53:51.209Z,3.40
2022-07-26T20:56:19.544Z,3.60
2022-07-26T20:58:46.847Z,3.45
2022-07-26T21:01:14.266Z,3.75
2022-07-26T21:03:41.582Z,3.45
2022-07-26T21:06:08.922Z,3.75
2022-07-26T21:08:36.177Z,3.80
2022-07-26T21:11:03.701Z,3.70
2022-07-26T21:13:34.084Z,3.90
2022-07-26T21:16:01.431Z,3.70
2022-07-26T21:18:29.858Z,3.92
2022-07-26T21:20:57.813Z,4.00
2022-07-26T21:23:25.406Z,4.15
2022-07-26T21:26:00.395Z,4.00
2022-07-26T21:28:28.670Z,3.85
2022-07-26T21:30:56.029Z,4.00
2022-07-26T21:33:23.337Z,4.28
2022-07-26T21:35:50.661Z,4.07
2022-07-26T21:38:18.159Z,4.03
2022-07-26T21:40:45.589Z,3.58
2022-07-26T21:43:13.002Z,3.92
2022-07-26T21:45:40.407Z,4.05
2022-07-26T21:48:07.769Z,3.88
2022-07-26T21:50:35.131Z,4.10
2022-07-26T21:53:02.436Z,4.03
2022-07-26T21:55:30.152Z,4.07
2022-07-26T21:57:57.477Z,4.15
2022-07-26T22:00:24.747Z,4.28
2022-07-26T22:02:52.039Z,4.40
2022-07-26T22:05:37.691Z,4.40
2022-07-26T22:08:12.336Z,4.78
2022-07-26T22:10:44.721Z,4.25
2022-07-26T22:13:12.930Z,4.70
2022-07-26T22:15:40.369Z,4.65
2022-07-26T22:18:09.830Z,4.57
2022-07-26T22:20:37.407Z,4.10
2022-07-26T22:23:09.396Z,4.18
2022-07-26T22:25:37.226Z,4.20
2022-07-26T22:28:05.231Z,4.03
2022-07-26T22:30:32.493Z,4.32
2022-07-26T22:33:00.609Z,4.38
2022-07-26T22:35:33.485Z,4.50
2022-07-26T22:38:09.099Z,4.28
2022-07-26T22:40:36.978Z,4.28
2022-07-26T22:43:04.626Z,4.20
2022-07-26T22:45:32.211Z,4.10
2022-07-26T22:47:59.568Z,4.55
2022-07-26T22:50:27.886Z,4.10
2022-07-26T22:52:55.377Z,3.88
2022-07-26T22:55:22.817Z,4.32
2022-07-26T22:57:50.235Z,4.45
2022-07-26T23:00:18.212Z,4.00
2022-07-26T23:02:45.552Z,4.15
2022-07-26T23:05:15.126Z,4.35
2022-07-26T23:07:42.426Z,4.32
2022-07-26T23:10:13.325Z,4.20
2022-07-26T23:12:40.619Z,4.05
2022-07-26T23:15:10.159Z,4.30
2022-07-26T23:17:37.757Z,4.28
2022-07-26T23:20:06.413Z,4.15
2022-07-26T23:22:34.126Z,4.70
2022-07-26T23:25:01.493Z,4.22
2022-07-26T23:27:28.787Z,5.07
2022-07-26T23:29:56.291Z,4.50
2022-07-26T23:32:23.579Z,4.30
2022-07-26T23:34:50.869Z,4.35
2022-07-26T23:37:18.255Z,4.28
2022-07-26T23:39:45.584Z,3.97
2022-07-26T23:42:12.808Z,4.47
2022-07-26T23:44:40.077Z,4.15
2022-07-26T23:47:07.436Z,4.28
2022-07-26T23:49:34.764Z,4.47
2022-07-26T23:52:02.048Z,4.43
2022-07-26T23:54:29.386Z,4.20
2022-07-26T23:56:56.736Z,4.65
2022-07-26T23:59:24.022Z,3.95
